Etusivu
METAR-TAF:

METAR-TAF

Lentoasemat :

Tegelin lentoasema

Berlin, Saksa

Leveyspiiri: 52-34N, Pituuspiiri: 013-19E, korkeus merenpinnasta: 37 m

Tämänhetkinen sää

Tämä raportti tehtiin 30 minuuttia sitten, kello 14.50 UTC
Tuuli 4 kn idästä, vaihdellen koillisen ja idän/kaakon välillä
Lämpötila 20°C
Kosteus 40%
Ilmanpaine 1018 hPa
Näkyvyys 10 km tai enemmän
ei pilviä alle 1500 m:ssä eikä cumulonimbus-pilviä

METAR: EDDT 161450Z 08004KT 040V120 CAVOK 20/06 Q1018 NOSIG

Aika: 17:20 (15:20 UTC)

Sääennuste

Tämä raportti tehtiin 4 tuntia ja 20 minuuttia sitten, kello 11.00 UTC
Ennuste voimassa 16. päivästä klo 12 UTC - 17. päivään klo 12 UTC
Tuuli 3 kn eri suunnista
Näkyvyys 10 km tai enemmän
ei pilviä alle 1500 m:ssä eikä cumulonimbus-pilviä
Todennäköisyys 30% :
Ajoittain
17. päivästä klo 04 UTC - 17. päivään klo 07 UTC
Näkyvyys: 3000 m
sumuhattaroita

TAF: EDDT 161100Z 1612/1712 VRB03KT CAVOK PROB30 TEMPO 1704/1707 3000 BCFG

Säähavainnot ja -ennusteet yli 4000 lentoasemalta (METAR- ja TAF-raportit).

Käytössä olevat sääasemat on merkitty karttaan keltaisilla ja punaisilla pisteillä.

Aseta hiiri pisteen päälle nähdäksesi sääaseman nimen.

Klikkaa sitten nähdäksesi säähavainnot ja -ennusteet.

Kartan vaihtaminen: klikkaa mustalla rastilla varustettuja vihreitä pisteitä, niin voit zoomata sisään; viivalla varustettua vihreää pistettä, niin voit zoomata ulos tai vihreitä nuolia, niin pääset viereisille kartoille.


METAR-TAF: